Time;durP1;ratioP1;P1;durP2;ratioP2;P2;SDS_P1;SDS_P2;PMS_P1;PMS_P2;Temp;Humidity;BMP_temperature;BMP_pressure;BME280_temperature;BME280_humidity;BME280_pressure;Samples;Min_cycle;Max_cycle;Signal;HPM_P1;HPM_P2
2021/12/05 00:22:17;;;;;;;;;;;3.20;99.90;;;;;;4974926;28;19982;-81
2021/12/05 00:24:47;;;;;;;;;;;3.20;99.90;;;;;;4986253;28;19911;-81
2021/12/05 00:27:18;;;;;;;;;;;3.20;99.90;;;;;;4991190;28;19934;-80
2021/12/05 00:29:56;;;;;;;;;;;3.20;99.90;;;;;;4992087;28;19932;-81
2021/12/05 00:32:30;;;;;;;;;;;3.20;99.90;;;;;;4984717;28;19934;-80
2021/12/05 00:35:26;;;;;;;;;;;3.20;99.90;;;;;;4975855;28;20295;-80
2021/12/05 00:38:54;;;;;;;;;;;3.30;99.90;;;;;;4984017;28;19926;-80
2021/12/05 00:47:12;;;;;;;;;;;3.20;99.90;;;;;;4982228;28;19989;-81
2021/12/05 00:55:45;;;;;;;;;;;3.30;99.90;;;;;;4968270;28;19985;-80
2021/12/05 01:07:00;;;;;;;;;;;3.30;99.90;;;;;;4970671;28;19941;-80
2021/12/05 01:09:38;;;;;;;;;;;3.30;99.90;;;;;;4979565;28;19962;-80
2021/12/05 01:12:19;;;;;;;;;;;3.40;99.90;;;;;;4971281;28;19926;-80
2021/12/05 01:15:03;;;;;;;;;;;3.50;99.90;;;;;;4979768;28;19930;-81
2021/12/05 01:17:35;;;;;;;;;;;3.50;99.90;;;;;;4983623;28;20001;-79
2021/12/05 01:20:06;;;;;;;;;;;3.70;99.90;;;;;;4979430;28;19979;-81
2021/12/05 01:22:36;;;;;;;;;;;3.70;99.90;;;;;;4973629;28;19941;-80
2021/12/05 01:25:16;;;;;;;;;;;3.70;99.90;;;;;;4977602;28;19950;-80
2021/12/05 01:27:53;;;;;;;;;;;3.70;99.90;;;;;;4987299;28;19922;-81
2021/12/05 01:30:28;;;;;;;;;;;3.80;99.90;;;;;;4984600;28;19922;-81
2021/12/05 01:33:03;;;;;;;;;;;3.80;99.90;;;;;;4990482;28;20002;-80
2021/12/05 01:35:48;;;;;;;;;;;3.80;99.90;;;;;;4991506;28;19917;-80
2021/12/05 01:38:25;;;;;;;;;;;3.80;99.90;;;;;;4988089;28;19914;-80
2021/12/05 01:41:07;;;;;;;;;;;3.80;99.90;;;;;;4990208;28;19927;-81
2021/12/05 01:44:21;;;;;;;;;;;3.80;99.90;;;;;;4981421;28;19914;-82
2021/12/05 01:50:08;;;;;;;;;;;3.80;99.90;;;;;;4989183;28;19938;-82
2021/12/05 01:53:10;;;;;;;;;;;3.80;99.90;;;;;;4976578;28;19933;-81
2021/12/05 01:56:34;;;;;;;;;;;3.80;99.90;;;;;;4992610;28;19977;-81
2021/12/05 02:02:51;;;;;;;;;;;3.80;99.90;;;;;;4963404;28;19927;-81
2021/12/05 02:11:26;;;;;;;;;;;3.90;99.90;;;;;;4991684;28;19930;-82
2021/12/05 02:30:59;;;;;;;;;;;3.80;99.90;;;;;;4936388;28;19926;-81
2021/12/05 02:36:28;;;;;;;;;;;3.70;99.90;;;;;;4986895;28;19914;-81
2021/12/05 02:41:39;;;;;;;;;;;3.70;99.90;;;;;;4984259;28;19910;-81
2021/12/05 02:44:13;;;;;;;;;;;3.70;99.90;;;;;;4985797;28;19954;-81
2021/12/05 02:46:42;;;;;;;;;;;3.70;99.90;;;;;;4998084;28;19929;-81
2021/12/05 02:49:11;;;;;;;;;;;3.80;99.90;;;;;;4980527;28;19926;-82
2021/12/05 02:51:39;;;;;;;;;;;3.80;99.90;;;;;;4999883;28;19934;-75
2021/12/05 02:54:11;;;;;;;;;;;3.80;99.90;;;;;;4987651;28;19926;-75
2021/12/05 02:56:41;;;;;;;;;;;3.90;99.90;;;;;;4994967;28;19929;-81
2021/12/05 02:59:19;;;;;;;;;;;3.90;99.90;;;;;;5060735;23;19917;-83
2021/12/05 03:01:50;;;;;;;;;;;3.90;99.90;;;;;;5030276;28;19925;-81
2021/12/05 03:04:17;;;;;;;;;;;4.00;99.90;;;;;;5013356;28;19926;-80
2021/12/05 03:06:51;;;;;;;;;;;4.00;99.90;;;;;;5013890;28;19933;-80
2021/12/05 03:09:19;;;;;;;;;;;4.00;99.90;;;;;;5020317;28;19926;-80
2021/12/05 03:11:47;;;;;;;;;;;4.00;99.90;;;;;;5024232;28;19958;-81
2021/12/05 03:14:13;;;;;;;;;;;4.00;99.90;;;;;;5021312;28;19981;-80
2021/12/05 03:16:41;;;;;;;;;;;3.90;99.90;;;;;;5029683;28;19949;-80
2021/12/05 03:19:09;;;;;;;;;;;3.90;99.90;;;;;;5023402;28;19968;-80
2021/12/05 03:21:48;;;;;;;;;;;3.90;99.90;;;;;;5017070;28;19930;-80
2021/12/05 03:24:15;;;;;;;;;;;3.90;99.90;;;;;;5017680;28;19952;-79
2021/12/05 03:26:45;;;;;;;;;;;3.80;99.90;;;;;;5026047;28;19956;-79
2021/12/05 03:29:14;;;;;;;;;;;3.80;99.90;;;;;;5027052;28;19957;-80
2021/12/05 03:31:40;;;;;;;;;;;3.80;99.90;;;;;;5023760;28;19955;-80
2021/12/05 03:34:08;;;;;;;;;;;3.80;99.90;;;;;;5027634;28;19965;-80
2021/12/05 03:36:36;;;;;;;;;;;3.80;99.90;;;;;;5019380;28;19925;-80
2021/12/05 03:39:04;;;;;;;;;;;3.80;99.90;;;;;;5011844;28;19985;-79
2021/12/05 03:41:31;;;;;;;;;;;3.80;99.90;;;;;;5009632;28;19993;-79
2021/12/05 03:44:00;;;;;;;;;;;3.80;99.90;;;;;;5023610;28;19933;-80
2021/12/05 03:46:27;;;;;;;;;;;3.80;99.90;;;;;;5015824;28;19988;-81
2021/12/05 03:48:55;;;;;;;;;;;3.70;99.90;;;;;;5030329;28;19977;-80
2021/12/05 03:51:23;;;;;;;;;;;3.80;99.90;;;;;;5019033;28;19978;-80
2021/12/05 03:53:50;;;;;;;;;;;3.70;99.90;;;;;;5030564;28;19925;-81
2021/12/05 03:56:17;;;;;;;;;;;3.80;99.90;;;;;;5020445;28;19945;-81
2021/12/05 03:58:44;;;;;;;;;;;3.70;99.90;;;;;;5018748;28;19925;-80
2021/12/05 04:01:13;;;;;;;;;;;3.70;99.90;;;;;;5014808;28;19965;-81
2021/12/05 04:03:40;;;;;;;;;;;3.70;99.90;;;;;;5014159;28;19990;-81
2021/12/05 04:06:09;;;;;;;;;;;3.70;99.90;;;;;;5007662;28;19945;-80
2021/12/05 04:08:38;;;;;;;;;;;3.70;99.90;;;;;;5015842;28;19961;-80
2021/12/05 04:11:07;;;;;;;;;;;3.70;99.90;;;;;;5009292;28;19989;-80
2021/12/05 04:13:34;;;;;;;;;;;3.70;99.90;;;;;;5007594;28;20017;-79
2021/12/05 04:16:02;;;;;;;;;;;3.70;99.90;;;;;;5011099;28;19964;-79
2021/12/05 04:18:30;;;;;;;;;;;3.80;99.90;;;;;;5011202;28;19968;-81
2021/12/05 04:20:57;;;;;;;;;;;3.70;99.90;;;;;;5009943;28;19964;-80
2021/12/05 04:23:24;;;;;;;;;;;3.80;99.90;;;;;;5000322;28;20395;-80
2021/12/05 04:25:52;;;;;;;;;;;3.80;99.90;;;;;;5017848;28;19914;-80
2021/12/05 04:28:19;;;;;;;;;;;3.80;99.90;;;;;;5005849;28;19911;-80
2021/12/05 04:30:46;;;;;;;;;;;3.70;99.90;;;;;;5005543;28;19932;-79
2021/12/05 04:33:13;;;;;;;;;;;3.80;99.90;;;;;;5011879;28;19913;-80
2021/12/05 04:35:41;;;;;;;;;;;3.80;99.90;;;;;;5003251;28;19926;-80
2021/12/05 04:38:08;;;;;;;;;;;3.80;99.90;;;;;;5008082;28;20017;-79
2021/12/05 04:40:35;;;;;;;;;;;3.70;99.90;;;;;;5003283;28;19926;-80
2021/12/05 04:43:02;;;;;;;;;;;3.70;99.90;;;;;;5010254;28;19964;-80
2021/12/05 04:45:30;;;;;;;;;;;3.70;99.90;;;;;;5001604;28;20357;-80
2021/12/05 04:47:57;;;;;;;;;;;3.70;99.90;;;;;;5009185;28;19956;-80
2021/12/05 04:50:24;;;;;;;;;;;3.80;99.90;;;;;;5012760;28;20024;-80
2021/12/05 04:52:54;;;;;;;;;;;3.70;99.90;;;;;;5011401;28;19968;-80
2021/12/05 04:55:20;;;;;;;;;;;3.80;99.90;;;;;;5008600;28;19998;-81
2021/12/05 04:57:48;;;;;;;;;;;3.80;99.90;;;;;;5004043;28;19978;-80
2021/12/05 05:00:18;;;;;;;;;;;3.80;99.90;;;;;;5015998;28;19933;-81
2021/12/05 05:02:45;;;;;;;;;;;3.80;99.90;;;;;;5003483;28;19920;-81
2021/12/05 05:05:14;;;;;;;;;;;3.80;99.90;;;;;;5008522;28;19982;-81
2021/12/05 05:07:42;;;;;;;;;;;3.80;99.90;;;;;;5005934;28;19953;-81
2021/12/05 05:10:13;;;;;;;;;;;3.80;99.90;;;;;;5017185;28;19925;-81
2021/12/05 05:12:39;;;;;;;;;;;3.80;99.90;;;;;;4990187;28;19989;-81
2021/12/05 05:15:07;;;;;;;;;;;3.80;99.90;;;;;;5009408;28;19926;-81
2021/12/05 05:17:35;;;;;;;;;;;3.80;99.90;;;;;;5017494;28;19913;-81
2021/12/05 05:20:08;;;;;;;;;;;3.80;99.90;;;;;;5017242;28;19932;-80
2021/12/05 05:22:42;;;;;;;;;;;3.80;99.90;;;;;;5014966;28;19925;-81
2021/12/05 05:28:29;;;;;;;;;;;3.80;99.90;;;;;;4963188;28;19952;-79
2021/12/05 05:45:17;;;;;;;;;;;3.70;99.90;;;;;;4999504;28;19930;-80
2021/12/05 05:47:58;;;;;;;;;;;3.70;99.90;;;;;;5007750;28;19933;-79
2021/12/05 05:50:25;;;;;;;;;;;3.70;99.90;;;;;;5002964;28;19933;-80
2021/12/05 05:52:52;;;;;;;;;;;3.70;99.90;;;;;;5012307;28;19914;-80
2021/12/05 05:55:19;;;;;;;;;;;3.70;99.90;;;;;;5007927;28;19965;-80
2021/12/05 05:57:57;;;;;;;;;;;3.70;99.90;;;;;;5014880;28;19968;-80
2021/12/05 06:00:31;;;;;;;;;;;3.70;99.90;;;;;;5014590;28;19933;-81
2021/12/05 06:05:42;;;;;;;;;;;3.70;99.90;;;;;;5003733;28;19988;-80
2021/12/05 06:08:09;;;;;;;;;;;3.70;99.90;;;;;;5009681;28;19989;-80
2021/12/05 06:10:36;;;;;;;;;;;3.70;99.90;;;;;;4996257;28;19926;-79
2021/12/05 06:13:04;;;;;;;;;;;3.70;99.90;;;;;;5002728;28;19952;-80
2021/12/05 06:15:31;;;;;;;;;;;3.70;99.90;;;;;;4998534;28;19926;-79
2021/12/05 06:17:57;;;;;;;;;;;3.70;99.90;;;;;;5005366;28;19969;-80
2021/12/05 06:20:26;;;;;;;;;;;3.70;99.90;;;;;;4992797;28;19968;-79
2021/12/05 06:22:54;;;;;;;;;;;3.70;99.90;;;;;;4996465;28;19933;-80
2021/12/05 06:25:23;;;;;;;;;;;3.80;99.90;;;;;;4999837;28;20009;-79
2021/12/05 06:27:51;;;;;;;;;;;3.80;99.90;;;;;;5005139;28;19925;-81
2021/12/05 06:30:28;;;;;;;;;;;3.80;99.90;;;;;;5002917;28;19925;-82
2021/12/05 06:38:40;;;;;;;;;;;3.80;99.90;;;;;;5008581;28;19949;-80
2021/12/05 06:41:13;;;;;;;;;;;3.90;99.90;;;;;;5010599;28;19925;-81
2021/12/05 06:46:29;;;;;;;;;;;3.80;99.90;;;;;;5010150;28;19924;-80
2021/12/05 06:48:55;;;;;;;;;;;3.90;99.90;;;;;;5017599;28;19956;-79
2021/12/05 06:51:23;;;;;;;;;;;3.90;99.90;;;;;;5018084;28;19980;-81
2021/12/05 06:53:50;;;;;;;;;;;3.90;99.90;;;;;;5009268;28;19926;-80
2021/12/05 06:56:17;;;;;;;;;;;3.90;99.90;;;;;;5015243;28;19960;-81
2021/12/05 06:58:44;;;;;;;;;;;3.90;99.90;;;;;;5015546;28;19930;-80
2021/12/05 07:01:12;;;;;;;;;;;3.90;99.90;;;;;;5016482;28;19953;-80
2021/12/05 07:03:43;;;;;;;;;;;3.90;99.90;;;;;;5006669;28;19925;-81
2021/12/05 07:06:11;;;;;;;;;;;3.90;99.90;;;;;;5020182;28;19937;-80
2021/12/05 07:08:40;;;;;;;;;;;3.90;99.90;;;;;;5019420;28;19926;-80
2021/12/05 07:11:12;;;;;;;;;;;3.90;99.90;;;;;;5012221;28;19926;-80
2021/12/05 07:14:22;;;;;;;;;;;3.90;99.90;;;;;;4997061;28;19958;-79
2021/12/05 07:16:53;;;;;;;;;;;3.90;99.90;;;;;;4990692;28;19926;-79
2021/12/05 07:19:32;;;;;;;;;;;3.90;99.90;;;;;;4995709;28;19926;-80
2021/12/05 07:22:01;;;;;;;;;;;3.90;99.90;;;;;;5003519;28;19933;-80
2021/12/05 07:24:45;;;;;;;;;;;3.90;99.90;;;;;;5004171;28;20436;-79
2021/12/05 07:41:17;;;;;;;;;;;3.90;99.90;;;;;;5011687;28;19937;-80
2021/12/05 07:43:44;;;;;;;;;;;3.90;99.90;;;;;;5008924;28;19971;-79
2021/12/05 07:46:13;;;;;;;;;;;3.90;99.90;;;;;;5007394;28;19928;-79
2021/12/05 07:48:43;;;;;;;;;;;3.90;99.90;;;;;;5002722;28;20005;-79
2021/12/05 07:51:20;;;;;;;;;;;3.90;99.90;;;;;;5004843;28;20020;-80
2021/12/05 07:53:53;;;;;;;;;;;3.90;99.90;;;;;;5010735;28;19926;-79
2021/12/05 07:56:22;;;;;;;;;;;4.00;99.90;;;;;;4999333;28;19957;-79
2021/12/05 07:59:06;;;;;;;;;;;4.00;99.90;;;;;;5011775;28;19976;-80
2021/12/05 08:15:17;;;;;;;;;;;4.10;99.90;;;;;;4972005;28;19958;-80
2021/12/05 08:17:51;;;;;;;;;;;4.10;99.90;;;;;;5073843;23;19921;-81
2021/12/05 08:20:19;;;;;;;;;;;4.00;99.90;;;;;;4967573;28;19918;-80
2021/12/05 08:22:48;;;;;;;;;;;4.00;99.90;;;;;;4985898;28;19970;-80
2021/12/05 08:25:23;;;;;;;;;;;4.10;99.90;;;;;;4975928;28;19934;-80
2021/12/05 08:27:59;;;;;;;;;;;4.00;99.90;;;;;;4987843;28;19910;-81
2021/12/05 08:30:31;;;;;;;;;;;4.10;99.90;;;;;;4985922;28;19933;-79
2021/12/05 09:25:12;;;;;;;;;;;4.30;99.90;;;;;;4954675;28;20298;-76
2021/12/05 09:38:54;;;;;;;;;;;4.40;99.90;;;;;;5019734;28;20014;-79
2021/12/05 10:08:55;;;;;;;;;;;4.60;99.90;;;;;;5890664;23;19921;-80
2021/12/05 10:11:33;;;;;;;;;;;4.70;99.90;;;;;;4972980;28;19917;-81
2021/12/05 10:16:40;;;;;;;;;;;4.70;99.90;;;;;;5030178;23;19915;-79
2021/12/05 10:19:43;;;;;;;;;;;4.70;99.90;;;;;;4967884;29;19999;-80
2021/12/05 10:38:45;;;;;;;;;;;5.00;99.90;;;;;;5601731;23;19932;-83
2021/12/05 10:41:23;;;;;;;;;;;5.10;99.90;;;;;;5009063;28;19914;-77
2021/12/05 10:46:40;;;;;;;;;;;5.30;99.90;;;;;;4961422;28;19935;-80
2021/12/05 10:49:09;;;;;;;;;;;5.40;99.90;;;;;;4959494;28;19991;-79
2021/12/05 10:51:37;;;;;;;;;;;5.40;99.90;;;;;;4952306;28;19919;-79
2021/12/05 10:54:10;;;;;;;;;;;5.70;99.90;;;;;;4944744;28;19966;-77
2021/12/05 10:56:39;;;;;;;;;;;5.70;99.90;;;;;;4955784;28;19946;-78
2021/12/05 10:59:08;;;;;;;;;;;5.80;99.90;;;;;;4949135;28;19911;-76
2021/12/05 11:01:36;;;;;;;;;;;5.80;99.90;;;;;;4963386;28;19931;-73
2021/12/05 11:32:38;;;;;;;;;;;5.40;99.90;;;;;;5354700;23;20025;-84
2021/12/05 11:35:16;;;;;;;;;;;5.40;99.90;;;;;;4992032;28;19918;-83
2021/12/05 11:42:51;;;;;;;;;;;5.40;99.90;;;;;;5925197;23;19930;-77
2021/12/05 11:47:55;;;;;;;;;;;5.40;99.90;;;;;;5587181;23;19921;-74
2021/12/05 11:50:30;;;;;;;;;;;5.40;99.90;;;;;;5029503;28;19930;-78
2021/12/05 11:53:00;;;;;;;;;;;5.40;99.90;;;;;;5033279;28;19984;-79
2021/12/05 11:55:28;;;;;;;;;;;5.50;99.90;;;;;;5020866;28;19964;-76
2021/12/05 12:00:23;;;;;;;;;;;5.40;99.90;;;;;;5999539;23;20858;-79
2021/12/05 12:05:28;;;;;;;;;;;5.30;99.90;;;;;;5931047;23;19917;-77
2021/12/05 12:08:02;;;;;;;;;;;5.30;99.90;;;;;;4996921;28;19911;-81
2021/12/05 12:10:32;;;;;;;;;;;5.30;99.90;;;;;;4990454;28;19922;-82
2021/12/05 12:13:03;;;;;;;;;;;5.40;99.90;;;;;;4988416;28;19978;-79
2021/12/05 12:15:34;;;;;;;;;;;5.40;99.90;;;;;;4992807;28;19917;-80
2021/12/05 12:18:16;;;;;;;;;;;5.30;99.90;;;;;;4989172;28;19926;-78
2021/12/05 12:23:10;;;;;;;;;;;5.40;99.90;;;;;;5635687;23;19910;-81
2021/12/05 12:25:41;;;;;;;;;;;5.40;99.90;;;;;;4986441;28;19910;-76
2021/12/05 12:28:11;;;;;;;;;;;5.40;99.90;;;;;;4987604;28;19950;-79
2021/12/05 12:30:39;;;;;;;;;;;5.40;99.90;;;;;;4990684;28;19957;-77
2021/12/05 12:33:08;;;;;;;;;;;5.40;99.90;;;;;;4987281;28;19948;-84
2021/12/05 12:35:35;;;;;;;;;;;5.40;99.90;;;;;;5287790;23;19922;-81
2021/12/05 12:40:48;;;;;;;;;;;5.40;99.90;;;;;;5270747;23;19915;-80
2021/12/05 12:43:30;;;;;;;;;;;5.20;99.90;;;;;;4956677;28;20446;-79
2021/12/05 12:52:38;;;;;;;;;;;5.20;99.90;;;;;;4957971;28;19946;-77
2021/12/05 12:55:53;;;;;;;;;;;5.30;99.90;;;;;;4916748;29;19930;-80
2021/12/05 12:58:39;;;;;;;;;;;5.40;99.90;;;;;;4961289;28;19911;-76
2021/12/05 13:01:35;;;;;;;;;;;5.50;99.90;;;;;;4945198;28;19911;-76
2021/12/05 13:04:38;;;;;;;;;;;5.40;99.90;;;;;;4945685;28;19926;-84
2021/12/05 13:10:08;;;;;;;;;;;5.20;99.90;;;;;;5099001;23;19930;-75
2021/12/05 13:12:50;;;;;;;;;;;5.30;99.90;;;;;;4980448;28;19918;-78
2021/12/05 13:15:20;;;;;;;;;;;5.30;99.90;;;;;;4978965;28;19918;-81
2021/12/05 13:17:48;;;;;;;;;;;5.30;99.90;;;;;;4988916;28;19926;-84
2021/12/05 13:20:21;;;;;;;;;;;5.40;99.90;;;;;;4991102;28;19910;-78
2021/12/05 13:23:01;;;;;;;;;;;5.40;99.90;;;;;;5000223;28;19910;-85
2021/12/05 13:25:29;;;;;;;;;;;5.40;99.90;;;;;;5000303;28;19930;-81
2021/12/05 13:27:57;;;;;;;;;;;5.50;99.90;;;;;;4996022;28;19926;-73
2021/12/05 13:33:18;;;;;;;;;;;5.40;99.90;;;;;;5619532;23;19910;-77
2021/12/05 13:35:49;;;;;;;;;;;5.40;99.90;;;;;;5039632;28;19909;-76
2021/12/05 13:46:03;;;;;;;;;;;5.70;99.90;;;;;;5807555;23;19926;-81
2021/12/05 13:48:30;;;;;;;;;;;5.90;99.90;;;;;;4972734;28;19935;-78
2021/12/05 13:51:00;;;;;;;;;;;6.00;99.90;;;;;;4984457;28;19943;-78
2021/12/05 13:53:33;;;;;;;;;;;5.90;99.90;;;;;;4966467;28;19934;-79
2021/12/05 13:56:04;;;;;;;;;;;5.90;99.90;;;;;;4969171;28;19970;-80
2021/12/05 13:58:40;;;;;;;;;;;5.90;99.90;;;;;;4972725;28;19949;-77
2021/12/05 14:01:08;;;;;;;;;;;5.80;99.90;;;;;;4978728;28;19942;-79
2021/12/05 14:03:39;;;;;;;;;;;5.90;99.90;;;;;;5004769;23;19910;-77
2021/12/05 14:06:21;;;;;;;;;;;5.90;99.90;;;;;;4962208;28;19935;-74
2021/12/05 14:19:41;;;;;;;;;;;6.00;99.90;;;;;;5500370;23;19933;-72
2021/12/05 14:22:11;;;;;;;;;;;6.00;99.90;;;;;;4963791;28;19973;-78
2021/12/05 14:24:39;;;;;;;;;;;6.00;99.90;;;;;;4976457;28;19910;-83
2021/12/05 14:29:43;;;;;;;;;;;5.90;99.90;;;;;;5372627;23;19911;-81
2021/12/05 14:32:12;;;;;;;;;;;5.90;99.90;;;;;;4993221;28;19910;-81
2021/12/05 14:34:43;;;;;;;;;;;5.90;99.90;;;;;;4989468;28;19926;-82
2021/12/05 14:37:11;;;;;;;;;;;5.90;99.90;;;;;;4996199;28;19910;-76
2021/12/05 14:39:39;;;;;;;;;;;5.80;99.90;;;;;;5002674;28;19910;-72
2021/12/05 14:42:07;;;;;;;;;;;5.90;99.90;;;;;;5001482;28;19944;-81
2021/12/05 14:44:35;;;;;;;;;;;6.00;99.90;;;;;;4997689;28;19910;-81
2021/12/05 14:47:03;;;;;;;;;;;5.90;99.90;;;;;;4987976;28;20409;-80
2021/12/05 14:49:31;;;;;;;;;;;5.90;99.90;;;;;;4998525;28;19937;-81
2021/12/05 14:52:01;;;;;;;;;;;5.90;99.90;;;;;;4983712;28;20024;-82
2021/12/05 14:54:30;;;;;;;;;;;5.90;99.90;;;;;;4986312;28;19914;-79
2021/12/05 14:56:57;;;;;;;;;;;5.90;99.90;;;;;;4990043;28;19918;-72
2021/12/05 14:59:24;;;;;;;;;;;6.00;99.90;;;;;;4989140;28;19953;-72
2021/12/05 15:01:54;;;;;;;;;;;6.00;99.90;;;;;;4981788;28;19926;-81
2021/12/05 15:07:26;;;;;;;;;;;5.90;99.90;;;;;;5002021;23;20077;-81
2021/12/05 15:09:53;;;;;;;;;;;6.00;99.90;;;;;;4973042;28;19934;-81
2021/12/05 15:12:23;;;;;;;;;;;5.90;99.90;;;;;;4959268;29;19933;-81
2021/12/05 15:14:53;;;;;;;;;;;5.90;99.90;;;;;;4962513;28;19917;-81
2021/12/05 15:17:22;;;;;;;;;;;5.80;99.90;;;;;;4982910;28;19914;-86
2021/12/05 15:19:51;;;;;;;;;;;5.80;99.90;;;;;;4982963;28;19915;-73
2021/12/05 15:22:18;;;;;;;;;;;5.80;99.90;;;;;;4982163;28;19977;-82
2021/12/05 15:24:52;;;;;;;;;;;5.70;99.90;;;;;;4975158;28;19948;-77
2021/12/05 15:27:20;;;;;;;;;;;5.70;99.90;;;;;;4979079;28;19945;-83
2021/12/05 15:29:48;;;;;;;;;;;5.70;99.90;;;;;;4966009;28;20017;-81
2021/12/05 15:32:18;;;;;;;;;;;5.60;99.90;;;;;;4958237;28;19958;-80
2021/12/05 15:34:47;;;;;;;;;;;5.50;99.90;;;;;;4966476;28;19990;-80
2021/12/05 15:37:16;;;;;;;;;;;5.40;99.90;;;;;;4971594;28;19934;-80
2021/12/05 15:39:44;;;;;;;;;;;5.30;99.90;;;;;;4968278;28;19934;-82
2021/12/05 15:42:17;;;;;;;;;;;5.30;99.90;;;;;;4970114;28;20060;-81
2021/12/05 15:44:45;;;;;;;;;;;5.30;99.90;;;;;;4962030;28;19937;-80
2021/12/05 15:47:16;;;;;;;;;;;5.30;99.90;;;;;;4969756;28;19974;-79
2021/12/05 15:49:55;;;;;;;;;;;5.30;99.90;;;;;;4949885;28;19934;-80
2021/12/05 15:52:27;;;;;;;;;;;5.30;99.90;;;;;;4972343;28;19981;-82
2021/12/05 15:54:56;;;;;;;;;;;5.20;99.90;;;;;;4962290;28;19927;-83
2021/12/05 15:57:32;;;;;;;;;;;5.20;99.90;;;;;;4965980;28;19933;-80
2021/12/05 16:00:00;;;;;;;;;;;5.20;99.90;;;;;;4960754;28;19931;-79
2021/12/05 16:02:27;;;;;;;;;;;5.20;99.90;;;;;;4973321;28;19927;-81
2021/12/05 16:04:56;;;;;;;;;;;5.20;99.90;;;;;;4968584;28;19953;-82
2021/12/05 16:07:26;;;;;;;;;;;5.20;99.90;;;;;;4969975;28;20400;-81
2021/12/05 16:12:25;;;;;;;;;;;5.10;99.90;;;;;;5377299;23;20402;-80
2021/12/05 16:14:56;;;;;;;;;;;5.10;99.90;;;;;;4970770;28;19930;-77
2021/12/05 16:17:24;;;;;;;;;;;5.10;99.90;;;;;;4991330;28;19934;-77
2021/12/05 16:20:06;;;;;;;;;;;5.10;99.90;;;;;;4996762;28;19914;-79
2021/12/05 16:22:33;;;;;;;;;;;5.10;99.90;;;;;;4996886;28;19953;-79
2021/12/05 16:25:18;;;;;;;;;;;5.10;99.90;;;;;;4977625;28;19910;-80
2021/12/05 16:27:50;;;;;;;;;;;5.10;99.90;;;;;;4984382;28;19981;-80
2021/12/05 16:30:24;;;;;;;;;;;4.90;99.90;;;;;;4990362;28;19910;-79
2021/12/05 16:32:52;;;;;;;;;;;4.90;99.90;;;;;;4976031;28;19965;-79
2021/12/05 16:35:27;;;;;;;;;;;4.90;99.90;;;;;;4975052;28;19946;-79
2021/12/05 16:40:50;;;;;;;;;;;4.90;99.90;;;;;;5324182;23;19934;-80
2021/12/05 16:43:19;;;;;;;;;;;4.90;99.90;;;;;;4948871;29;19933;-80
2021/12/05 16:45:46;;;;;;;;;;;4.90;99.90;;;;;;4952780;28;19932;-76
2021/12/05 16:48:13;;;;;;;;;;;4.80;99.90;;;;;;4960982;28;19911;-75
2021/12/05 16:56:13;;;;;;;;;;;4.70;99.90;;;;;;5408344;23;19942;-79
2021/12/05 16:58:42;;;;;;;;;;;4.70;99.90;;;;;;4978070;28;19927;-81
2021/12/05 17:01:14;;;;;;;;;;;4.70;99.90;;;;;;4966458;28;19960;-79
2021/12/05 17:03:43;;;;;;;;;;;4.70;99.90;;;;;;4973241;28;19922;-78
2021/12/05 17:08:48;;;;;;;;;;;4.70;99.90;;;;;;6044579;23;19920;-75
2021/12/05 17:11:26;;;;;;;;;;;4.80;99.90;;;;;;4996126;28;19918;-83
2021/12/05 17:19:06;;;;;;;;;;;4.80;99.90;;;;;;5944882;23;19897;-77
2021/12/05 17:21:35;;;;;;;;;;;4.80;99.90;;;;;;4963700;28;19990;-81
2021/12/05 17:24:06;;;;;;;;;;;4.80;99.90;;;;;;4963686;28;19934;-78
2021/12/05 17:26:34;;;;;;;;;;;4.80;99.90;;;;;;4971425;28;19942;-80
2021/12/05 17:29:03;;;;;;;;;;;4.80;99.90;;;;;;4977646;28;20016;-79
2021/12/05 17:31:32;;;;;;;;;;;4.80;99.90;;;;;;4977962;28;19926;-79
2021/12/05 17:34:02;;;;;;;;;;;4.80;99.90;;;;;;4981742;28;19910;-78
2021/12/05 17:36:30;;;;;;;;;;;4.80;99.90;;;;;;4979470;28;19926;-81
2021/12/05 17:39:01;;;;;;;;;;;4.70;99.90;;;;;;4976470;28;20271;-80
2021/12/05 17:41:28;;;;;;;;;;;4.70;99.90;;;;;;4973859;28;19926;-79
2021/12/05 17:43:56;;;;;;;;;;;4.70;99.90;;;;;;4972753;28;19926;-80
2021/12/05 17:46:23;;;;;;;;;;;4.70;99.90;;;;;;4973532;28;19949;-80
2021/12/05 17:48:54;;;;;;;;;;;4.70;99.90;;;;;;4977155;28;19954;-80
2021/12/05 17:51:27;;;;;;;;;;;4.70;99.90;;;;;;4971911;28;19986;-79
2021/12/05 17:53:56;;;;;;;;;;;4.60;99.90;;;;;;4978097;28;19985;-81
2021/12/05 17:56:36;;;;;;;;;;;4.60;99.90;;;;;;4971137;28;20006;-80
2021/12/05 17:59:12;;;;;;;;;;;4.60;99.90;;;;;;4973219;28;20037;-80
2021/12/05 18:04:25;;;;;;;;;;;4.60;99.90;;;;;;4972509;28;19968;-81
2021/12/05 18:06:54;;;;;;;;;;;4.60;99.90;;;;;;4972297;28;20002;-80
2021/12/05 18:09:21;;;;;;;;;;;4.60;99.90;;;;;;4971659;28;19981;-80
2021/12/05 18:11:47;;;;;;;;;;;4.60;99.90;;;;;;4973830;28;19926;-81
2021/12/05 18:14:14;;;;;;;;;;;4.60;99.90;;;;;;4970691;28;20267;-81
2021/12/05 18:16:43;;;;;;;;;;;4.60;99.90;;;;;;4973772;28;19930;-81
2021/12/05 18:19:12;;;;;;;;;;;4.60;99.90;;;;;;4972541;28;19926;-81
2021/12/05 18:21:40;;;;;;;;;;;4.60;99.90;;;;;;4976748;28;19954;-80
2021/12/05 18:24:10;;;;;;;;;;;4.60;99.90;;;;;;4969074;28;19934;-80
2021/12/05 18:26:46;;;;;;;;;;;4.60;99.90;;;;;;4970257;28;19927;-80
2021/12/05 18:29:16;;;;;;;;;;;4.50;99.90;;;;;;4974295;28;19926;-81
2021/12/05 18:31:43;;;;;;;;;;;4.60;99.90;;;;;;4974255;28;19936;-80
2021/12/05 18:34:12;;;;;;;;;;;4.50;99.90;;;;;;4969639;28;19930;-81
2021/12/05 18:36:42;;;;;;;;;;;4.50;99.90;;;;;;4972367;28;19926;-81
2021/12/05 18:39:18;;;;;;;;;;;4.50;99.90;;;;;;4970459;28;19992;-82
2021/12/05 18:41:45;;;;;;;;;;;4.50;99.90;;;;;;4968084;28;20430;-80
2021/12/05 18:46:49;;;;;;;;;;;4.40;99.90;;;;;;5315891;23;20401;-79
2021/12/05 18:51:52;;;;;;;;;;;4.40;99.90;;;;;;5467741;23;19973;-78
2021/12/05 18:54:25;;;;;;;;;;;4.40;99.90;;;;;;4997254;23;19910;-71
2021/12/05 19:04:42;;;;;;;;;;;4.50;99.90;;;;;;4981579;28;19941;-81
2021/12/05 19:07:15;;;;;;;;;;;4.50;99.90;;;;;;4989703;28;19910;-82
2021/12/05 19:15:01;;;;;;;;;;;4.40;99.90;;;;;;5935942;23;19925;-78
2021/12/05 19:17:30;;;;;;;;;;;4.40;99.90;;;;;;5021824;28;19910;-74
2021/12/05 19:20:02;;;;;;;;;;;4.40;99.90;;;;;;5021549;28;19914;-79
2021/12/05 19:22:34;;;;;;;;;;;4.40;99.90;;;;;;5010147;28;19910;-73
2021/12/05 19:25:22;;;;;;;;;;;4.40;99.90;;;;;;5009853;28;19926;-80
2021/12/05 19:30:56;;;;;;;;;;;4.40;99.90;;;;;;5011638;28;19917;-73
2021/12/05 19:33:24;;;;;;;;;;;4.30;99.90;;;;;;5021540;28;19933;-71
2021/12/05 19:38:27;;;;;;;;;;;4.30;99.90;;;;;;5871171;23;19926;-79
2021/12/05 19:40:57;;;;;;;;;;;4.40;99.90;;;;;;5008219;28;19938;-80
2021/12/05 19:43:25;;;;;;;;;;;4.40;99.90;;;;;;5004129;28;19953;-80
2021/12/05 19:45:52;;;;;;;;;;;4.40;99.90;;;;;;5010171;28;19968;-80
2021/12/05 19:48:19;;;;;;;;;;;4.40;99.90;;;;;;5004066;28;19949;-83
2021/12/05 19:50:46;;;;;;;;;;;4.40;99.90;;;;;;5013045;28;19933;-77
2021/12/05 19:59:02;;;;;;;;;;;4.40;99.90;;;;;;5522921;23;19909;-72
2021/12/05 20:01:30;;;;;;;;;;;4.40;99.90;;;;;;5040970;28;19937;-69
2021/12/05 20:03:57;;;;;;;;;;;4.40;99.90;;;;;;5040413;28;19909;-79
2021/12/05 20:06:24;;;;;;;;;;;4.40;99.90;;;;;;5029999;28;19910;-80
2021/12/05 20:08:51;;;;;;;;;;;4.40;99.90;;;;;;5026243;28;19910;-71
2021/12/05 20:11:21;;;;;;;;;;;4.40;99.90;;;;;;5032427;28;19913;-77
2021/12/05 20:22:00;;;;;;;;;;;4.30;99.90;;;;;;5181729;23;19914;-74
2021/12/05 20:24:26;;;;;;;;;;;4.30;99.90;;;;;;4984170;28;19926;-81
2021/12/05 20:26:53;;;;;;;;;;;4.30;99.90;;;;;;4979689;28;19927;-81
2021/12/05 20:29:23;;;;;;;;;;;4.30;99.90;;;;;;4982396;28;19931;-83
2021/12/05 20:31:50;;;;;;;;;;;4.30;99.90;;;;;;4990217;28;19910;-77
2021/12/05 20:34:17;;;;;;;;;;;4.30;99.90;;;;;;4987694;28;19934;-75
2021/12/05 20:36:44;;;;;;;;;;;4.30;99.90;;;;;;4991792;28;19911;-73
2021/12/05 20:41:48;;;;;;;;;;;4.30;99.90;;;;;;5520364;23;21126;-79
2021/12/05 20:44:15;;;;;;;;;;;4.30;99.90;;;;;;5018305;23;19914;-81
2021/12/05 20:51:53;;;;;;;;;;;4.20;99.90;;;;;;5534423;23;19933;-81
2021/12/05 20:54:20;;;;;;;;;;;4.20;99.90;;;;;;4983757;28;19993;-79
2021/12/05 20:56:48;;;;;;;;;;;4.20;99.90;;;;;;4982757;28;19910;-81
2021/12/05 20:59:15;;;;;;;;;;;4.20;99.90;;;;;;4984645;28;19911;-73
2021/12/05 21:01:42;;;;;;;;;;;4.20;99.90;;;;;;4981273;28;19915;-75
2021/12/05 21:04:09;;;;;;;;;;;4.10;99.90;;;;;;4980385;28;19922;-80
2021/12/05 21:06:38;;;;;;;;;;;4.10;99.90;;;;;;4998793;28;19916;-69
2021/12/05 21:09:05;;;;;;;;;;;4.00;99.90;;;;;;4982796;28;19985;-79
2021/12/05 21:11:35;;;;;;;;;;;4.10;99.90;;;;;;4988177;28;19930;-79
2021/12/05 21:14:04;;;;;;;;;;;4.10;99.90;;;;;;4984953;28;19911;-81
2021/12/05 21:16:31;;;;;;;;;;;4.10;99.90;;;;;;4980865;28;19911;-67
2021/12/05 21:21:23;;;;;;;;;;;4.00;99.90;;;;;;4969648;23;19927;-80
2021/12/05 21:23:51;;;;;;;;;;;4.00;99.90;;;;;;4979938;28;19945;-67
2021/12/05 21:26:18;;;;;;;;;;;4.00;99.90;;;;;;4981121;28;19945;-67
